createdAt,value
2019-02-26T00:01:33.890Z,93.00
2019-02-26T00:04:04.597Z,93.10
2019-02-26T00:06:34.250Z,93.20
2019-02-26T00:09:06.600Z,93.00
2019-02-26T00:11:38.530Z,93.30
2019-02-26T00:14:07.929Z,93.80
2019-02-26T00:16:39.693Z,94.00
2019-02-26T00:19:09.790Z,93.40
2019-02-26T00:21:40.314Z,93.40
2019-02-26T00:24:12.331Z,93.30
2019-02-26T00:26:43.477Z,93.50
2019-02-26T00:29:12.829Z,93.50
2019-02-26T00:31:43.451Z,93.90
2019-02-26T00:34:16.041Z,93.60
2019-02-26T00:36:45.279Z,93.10
2019-02-26T00:39:15.027Z,93.30
2019-02-26T00:41:44.685Z,93.80
2019-02-26T00:44:14.415Z,94.10
2019-02-26T00:46:44.160Z,94.50
2019-02-26T00:49:13.910Z,94.10
2019-02-26T00:51:45.987Z,94.10
2019-02-26T00:54:14.943Z,93.90
2019-02-26T00:56:44.573Z,93.80
2019-02-26T00:59:14.289Z,94.10
2019-02-26T01:01:46.037Z,93.90
2019-02-26T01:04:16.077Z,94.20
2019-02-26T01:06:45.764Z,94.00
2019-02-26T01:09:15.980Z,94.60
2019-02-26T01:11:47.533Z,94.40
2019-02-26T01:14:18.617Z,94.20
2019-02-26T01:16:48.513Z,94.00
2019-02-26T01:19:19.835Z,94.00
2019-02-26T01:21:50.817Z,94.10
2019-02-26T01:24:21.492Z,94.00
2019-02-26T01:26:51.888Z,93.90
2019-02-26T01:29:23.048Z,94.10
2019-02-26T01:31:52.935Z,93.70
2019-02-26T01:34:22.711Z,94.20
2019-02-26T01:36:52.347Z,94.90
2019-02-26T01:39:23.387Z,95.00
2019-02-26T01:41:56.014Z,94.60
2019-02-26T01:44:28.052Z,94.60
2019-02-26T01:46:57.808Z,94.80
2019-02-26T01:49:28.512Z,94.70
2019-02-26T01:51:58.368Z,94.50
2019-02-26T01:54:28.670Z,95.10
2019-02-26T01:56:59.474Z,95.00
2019-02-26T01:59:29.179Z,95.10
2019-02-26T02:01:58.851Z,95.00
2019-02-26T02:04:28.482Z,94.90
2019-02-26T02:06:58.960Z,95.20
2019-02-26T02:09:29.675Z,95.00
2019-02-26T02:12:00.082Z,95.70
2019-02-26T02:14:30.730Z,95.60
2019-02-26T02:17:01.228Z,95.50
2019-02-26T02:19:32.659Z,95.70
2019-02-26T02:22:02.426Z,96.20
2019-02-26T02:24:32.092Z,95.80
2019-02-26T02:27:01.855Z,95.70
2019-02-26T02:29:31.554Z,95.10
2019-02-26T02:32:02.814Z,95.80
2019-02-26T02:34:33.741Z,95.60
2019-02-26T02:37:04.304Z,95.20
2019-02-26T02:39:34.067Z,95.60
2019-02-26T02:42:03.825Z,95.40
2019-02-26T02:44:33.559Z,95.20
2019-02-26T02:47:04.268Z,95.10
2019-02-26T02:49:37.473Z,96.00
2019-02-26T02:52:07.208Z,95.50
2019-02-26T02:54:38.715Z,96.20
2019-02-26T02:57:10.010Z,96.00
2019-02-26T02:59:42.320Z,95.60
2019-02-26T03:02:12.721Z,95.50
2019-02-26T03:04:42.752Z,95.70
2019-02-26T03:07:12.449Z,94.90
2019-02-26T03:09:43.234Z,95.40
2019-02-26T03:12:13.489Z,96.00
2019-02-26T03:14:44.493Z,96.60
2019-02-26T03:17:18.169Z,96.20
2019-02-26T03:19:46.694Z,96.30
2019-02-26T03:22:18.910Z,95.90
2019-02-26T03:24:48.360Z,95.70
2019-02-26T03:27:19.118Z,95.70
2019-02-26T03:29:49.946Z,95.00
2019-02-26T03:32:20.195Z,95.90
2019-02-26T03:34:49.904Z,96.00
2019-02-26T03:37:19.741Z,95.40
2019-02-26T03:39:49.504Z,95.90
2019-02-26T03:42:21.167Z,95.90
2019-02-26T03:44:50.635Z,95.60
2019-02-26T03:47:20.474Z,95.60
2019-02-26T03:49:50.239Z,96.00
2019-02-26T03:52:20.022Z,96.20
2019-02-26T03:54:50.681Z,96.40
2019-02-26T03:57:22.691Z,96.10
2019-02-26T03:59:52.241Z,95.90
2019-02-26T04:02:23.529Z,95.40
2019-02-26T04:04:54.393Z,95.50
2019-02-26T04:07:25.980Z,97.10
2019-02-26T04:09:58.395Z,96.50
2019-02-26T04:12:28.537Z,96.60
2019-02-26T04:14:58.445Z,96.40
2019-02-26T04:17:30.795Z,96.80
2019-02-26T04:19:59.526Z,97.30
2019-02-26T04:22:39.214Z,97.00
2019-02-26T04:25:36.450Z,96.60
2019-02-26T04:28:16.125Z,96.60
2019-02-26T04:31:29.000Z,96.10
2019-02-26T04:34:35.059Z,96.80
2019-02-26T04:37:40.287Z,97.00
2019-02-26T04:40:38.934Z,96.60
2019-02-26T04:43:38.852Z,96.80
2019-02-26T04:46:48.140Z,96.90
2019-02-26T04:49:17.817Z,96.20
2019-02-26T04:51:48.509Z,96.80
2019-02-26T04:54:23.795Z,97.10
2019-02-26T04:56:51.705Z,97.30
2019-02-26T04:59:21.470Z,97.50
2019-02-26T05:01:52.328Z,97.20
2019-02-26T05:04:22.820Z,97.10
2019-02-26T05:06:52.490Z,96.90
2019-02-26T05:09:24.120Z,96.40
2019-02-26T05:11:53.507Z,96.10
2019-02-26T05:14:23.704Z,96.60
2019-02-26T05:16:53.466Z,96.50
2019-02-26T05:19:24.384Z,96.40
2019-02-26T05:21:56.786Z,97.10
2019-02-26T05:24:26.287Z,96.60
2019-02-26T05:26:56.123Z,96.80
2019-02-26T05:29:25.863Z,97.00
2019-02-26T05:31:58.097Z,96.30
2019-02-26T05:34:27.163Z,97.10
2019-02-26T05:36:59.653Z,96.70
2019-02-26T05:39:28.831Z,97.10
2019-02-26T05:42:00.851Z,96.60
2019-02-26T05:44:31.430Z,97.00
2019-02-26T05:47:01.599Z,96.30
2019-02-26T05:49:35.330Z,96.80
2019-02-26T05:52:04.755Z,96.80
2019-02-26T05:54:35.393Z,97.00
2019-02-26T05:57:06.674Z,97.00
2019-02-26T05:59:36.445Z,96.80
2019-02-26T06:02:06.133Z,96.70
2019-02-26T06:04:38.395Z,96.90
2019-02-26T06:07:09.853Z,96.80
2019-02-26T06:09:39.560Z,96.80
2019-02-26T06:12:09.242Z,96.60
2019-02-26T06:14:39.435Z,96.90
2019-02-26T06:17:10.513Z,97.10
2019-02-26T06:19:50.096Z,97.10
2019-02-26T06:22:21.374Z,97.20
2019-02-26T06:24:54.964Z,97.00
2019-02-26T06:27:24.733Z,97.20
2019-02-26T06:29:55.489Z,97.10
2019-02-26T06:32:29.932Z,97.10
2019-02-26T06:34:56.540Z,97.00
2019-02-26T06:37:28.439Z,97.30
2019-02-26T06:39:59.896Z,97.10
2019-02-26T06:42:31.595Z,97.60
2019-02-26T06:45:00.355Z,97.40
2019-02-26T06:47:31.045Z,97.70
2019-02-26T06:50:02.931Z,97.60
2019-02-26T06:52:35.121Z,97.70
2019-02-26T06:55:07.203Z,97.50
2019-02-26T06:57:38.837Z,97.50
2019-02-26T07:00:10.968Z,97.10
2019-02-26T07:02:42.986Z,97.00
2019-02-26T07:05:13.118Z,97.60
2019-02-26T07:07:42.799Z,97.00
2019-02-26T07:10:16.005Z,97.50
2019-02-26T07:12:46.138Z,97.00
2019-02-26T07:15:16.573Z,96.80
2019-02-26T07:17:47.266Z,97.00
2019-02-26T07:20:17.659Z,97.00
2019-02-26T07:22:49.632Z,96.60
2019-02-26T07:25:18.891Z,96.60
2019-02-26T07:27:48.641Z,96.40
2019-02-26T07:30:18.402Z,96.30
2019-02-26T07:32:48.361Z,96.10
2019-02-26T07:35:18.032Z,96.10
2019-02-26T07:37:47.754Z,96.00
2019-02-26T07:40:18.727Z,96.30
2019-02-26T07:42:49.163Z,96.00
2019-02-26T07:45:21.843Z,95.70
2019-02-26T07:47:53.250Z,95.50
2019-02-26T07:50:22.331Z,95.70
2019-02-26T07:52:52.645Z,95.30
2019-02-26T07:55:23.591Z,95.00
2019-02-26T07:57:53.404Z,95.30
2019-02-26T08:00:23.822Z,95.00
2019-02-26T08:02:56.454Z,95.10
2019-02-26T08:05:28.675Z,94.70
2019-02-26T08:07:57.392Z,94.90
2019-02-26T08:10:27.168Z,95.30
2019-02-26T08:12:59.401Z,95.40
2019-02-26T08:15:30.193Z,95.20
2019-02-26T08:18:01.251Z,94.80
2019-02-26T08:20:33.012Z,94.90
2019-02-26T08:23:02.447Z,94.70
2019-02-26T08:25:32.165Z,94.90
2019-02-26T08:28:01.796Z,94.80
2019-02-26T08:30:31.487Z,94.50
2019-02-26T08:33:04.283Z,94.80
2019-02-26T08:35:32.517Z,94.60
2019-02-26T08:38:05.624Z,95.20
2019-02-26T08:40:33.502Z,95.00
2019-02-26T08:43:03.154Z,94.90
2019-02-26T08:45:32.887Z,95.20
2019-02-26T08:48:02.511Z,94.80
2019-02-26T08:50:33.313Z,94.70
2019-02-26T08:53:03.738Z,94.50
2019-02-26T08:55:33.383Z,94.50
2019-02-26T08:58:03.022Z,95.00
2019-02-26T09:00:34.201Z,94.90
2019-02-26T09:03:04.248Z,94.50
2019-02-26T09:05:34.469Z,93.80
2019-02-26T09:08:05.966Z,93.10
2019-02-26T09:10:38.600Z,93.30
2019-02-26T09:13:09.376Z,93.60
2019-02-26T09:15:41.369Z,93.40
2019-02-26T09:18:11.666Z,93.60
2019-02-26T09:20:41.307Z,93.40
2019-02-26T09:23:11.011Z,93.30
2019-02-26T09:25:40.751Z,93.10
2019-02-26T09:28:10.489Z,93.10
2019-02-26T09:30:40.835Z,92.70
2019-02-26T09:33:11.219Z,92.10
2019-02-26T09:35:40.935Z,92.40
2019-02-26T09:38:12.348Z,92.30
2019-02-26T09:40:41.954Z,92.60
2019-02-26T09:43:12.893Z,92.00
2019-02-26T09:45:43.557Z,92.50
2019-02-26T09:48:16.602Z,92.10
2019-02-26T09:50:46.388Z,91.30
2019-02-26T09:53:17.131Z,91.90
2019-02-26T09:55:46.762Z,91.90
2019-02-26T09:58:18.067Z,91.90
2019-02-26T10:00:50.479Z,91.60
2019-02-26T10:03:19.035Z,91.60
2019-02-26T10:05:52.219Z,91.30
2019-02-26T10:08:22.212Z,92.30
2019-02-26T10:10:52.042Z,90.90
2019-02-26T10:13:24.990Z,91.80
2019-02-26T10:15:56.279Z,91.50
2019-02-26T10:18:27.768Z,91.20
2019-02-26T10:20:57.107Z,91.10
2019-02-26T10:23:29.096Z,91.00
2019-02-26T10:26:00.306Z,90.30
2019-02-26T10:28:30.154Z,90.40
2019-02-26T10:31:04.232Z,90.80
2019-02-26T10:33:31.604Z,91.50
2019-02-26T10:36:04.871Z,91.90
2019-02-26T10:38:36.012Z,91.70
2019-02-26T10:41:06.049Z,92.00
2019-02-26T10:43:36.050Z,92.40
2019-02-26T10:46:06.034Z,92.40
2019-02-26T10:48:35.758Z,92.40
2019-02-26T10:51:06.532Z,92.20
2019-02-26T10:53:37.016Z,91.30
2019-02-26T10:56:06.839Z,91.30
2019-02-26T10:58:37.551Z,90.50
2019-02-26T11:01:07.600Z,89.70
2019-02-26T11:03:40.782Z,90.70
2019-02-26T11:06:10.713Z,90.90
2019-02-26T11:08:40.230Z,90.30
2019-02-26T11:11:12.945Z,91.30
2019-02-26T11:13:43.485Z,90.50
2019-02-26T11:16:17.071Z,90.90
2019-02-26T11:18:45.720Z,91.00
2019-02-26T11:21:16.916Z,91.40
2019-02-26T11:23:46.726Z,91.30
2019-02-26T11:26:18.769Z,90.20
2019-02-26T11:28:48.090Z,91.40
2019-02-26T11:31:20.112Z,91.40
2019-02-26T11:33:49.381Z,91.00
2019-02-26T11:36:19.124Z,90.10
2019-02-26T11:38:48.865Z,90.20
2019-02-26T11:41:18.662Z,90.00
2019-02-26T11:43:48.418Z,89.70
2019-02-26T11:46:20.004Z,89.70
2019-02-26T11:48:50.206Z,89.10
2019-02-26T11:51:21.117Z,89.60
2019-02-26T11:53:50.854Z,90.70
2019-02-26T11:56:22.953Z,90.00
2019-02-26T11:58:52.162Z,90.50
2019-02-26T12:01:22.020Z,90.00
2019-02-26T12:03:55.881Z,90.30
2019-02-26T12:06:23.253Z,90.20
2019-02-26T12:08:52.981Z,90.30
2019-02-26T12:11:23.266Z,90.50
2019-02-26T12:13:53.273Z,90.10
2019-02-26T12:16:23.213Z,89.20
2019-02-26T12:18:53.045Z,90.80
2019-02-26T12:21:25.209Z,89.60
2019-02-26T12:23:55.666Z,90.50
2019-02-26T12:26:27.388Z,90.40
2019-02-26T12:28:57.335Z,90.50
2019-02-26T12:31:31.160Z,90.50
2019-02-26T12:33:59.521Z,90.70
2019-02-26T12:36:29.766Z,90.30
2019-02-26T12:39:02.519Z,90.40
2019-02-26T12:41:36.545Z,89.00
2019-02-26T12:44:10.651Z,90.30
2019-02-26T12:46:37.078Z,89.80
2019-02-26T12:49:09.368Z,90.20
2019-02-26T12:51:38.351Z,89.00
2019-02-26T12:54:10.057Z,88.70
2019-02-26T12:56:39.457Z,88.50
2019-02-26T12:59:09.173Z,88.30
2019-02-26T13:01:40.820Z,89.80
2019-02-26T13:04:12.989Z,89.90
2019-02-26T13:06:45.278Z,88.70
2019-02-26T13:09:13.572Z,89.10
2019-02-26T13:12:00.667Z,88.00
2019-02-26T13:14:18.082Z,87.30
2019-02-26T13:16:48.833Z,89.80
2019-02-26T13:19:22.076Z,90.20
2019-02-26T13:21:51.860Z,89.90
2019-02-26T13:24:26.470Z,88.00
2019-02-26T13:26:55.671Z,88.60
2019-02-26T13:29:25.549Z,90.00
2019-02-26T13:31:59.124Z,88.50
2019-02-26T13:34:26.706Z,87.80
2019-02-26T13:36:57.003Z,87.70
2019-02-26T13:39:36.857Z,87.30
2019-02-26T13:42:03.699Z,87.90
2019-02-26T13:44:30.112Z,85.20
2019-02-26T13:47:00.021Z,87.60
2019-02-26T13:49:29.727Z,86.70
2019-02-26T13:51:59.590Z,88.10
2019-02-26T13:54:29.383Z,88.70
2019-02-26T13:56:59.078Z,90.60
2019-02-26T13:59:28.786Z,90.20
2019-02-26T14:01:58.601Z,87.60
2019-02-26T14:04:28.488Z,86.70
2019-02-26T14:06:58.271Z,88.20
2019-02-26T14:09:28.745Z,88.60
2019-02-26T14:11:58.596Z,87.90
2019-02-26T14:14:28.780Z,89.70
2019-02-26T14:16:58.584Z,89.40
2019-02-26T14:19:28.490Z,89.20
2019-02-26T14:21:58.675Z,89.00
2019-02-26T14:24:28.471Z,88.60
2019-02-26T14:26:58.214Z,88.00
2019-02-26T14:29:29.717Z,90.20
2019-02-26T14:32:00.106Z,89.50
2019-02-26T14:34:29.982Z,89.00
2019-02-26T14:37:00.010Z,88.40
2019-02-26T14:39:29.831Z,88.70
2019-02-26T14:41:59.542Z,87.10
2019-02-26T14:44:29.448Z,87.90
2019-02-26T14:46:59.227Z,87.20
2019-02-26T14:49:29.071Z,87.70
2019-02-26T14:51:58.889Z,88.90
2019-02-26T14:54:28.757Z,89.30
2019-02-26T14:56:59.457Z,90.00
2019-02-26T14:59:29.261Z,89.50
2019-02-26T15:01:59.042Z,88.90
2019-02-26T15:04:28.756Z,88.50
2019-02-26T15:06:58.412Z,87.80
2019-02-26T15:09:29.147Z,88.00
2019-02-26T15:11:58.846Z,87.60
2019-02-26T15:14:28.598Z,87.80
2019-02-26T15:17:02.276Z,87.60
2019-02-26T15:19:34.880Z,88.40
2019-02-26T15:22:06.163Z,87.40
2019-02-26T15:24:36.002Z,87.50
2019-02-26T15:27:05.783Z,86.60
2019-02-26T15:29:35.639Z,86.00
2019-02-26T15:32:05.538Z,85.20
2019-02-26T15:34:35.317Z,86.00
2019-02-26T15:37:05.273Z,86.50
2019-02-26T15:39:35.015Z,86.00
2019-02-26T15:42:04.935Z,86.80
2019-02-26T15:44:34.665Z,87.10
2019-02-26T15:47:04.359Z,86.60
2019-02-26T15:49:35.826Z,86.50
2019-02-26T15:52:05.672Z,87.80
2019-02-26T15:54:35.621Z,88.90
2019-02-26T15:57:09.167Z,89.80
2019-02-26T15:59:39.021Z,90.60
2019-02-26T16:02:08.979Z,90.50
2019-02-26T16:04:38.780Z,90.40
2019-02-26T16:07:08.572Z,90.60
2019-02-26T16:09:38.335Z,89.20
2019-02-26T16:12:08.143Z,89.40
2019-02-26T16:14:37.792Z,90.30
2019-02-26T16:17:26.890Z,90.50
2019-02-26T16:19:56.687Z,90.40
2019-02-26T16:22:26.527Z,90.90
2019-02-26T16:24:56.315Z,91.20
2019-02-26T16:27:26.139Z,91.00
2019-02-26T16:29:55.951Z,91.70
2019-02-26T16:32:25.670Z,91.80
2019-02-26T16:34:55.329Z,92.20
2019-02-26T16:37:25.275Z,92.00
2019-02-26T16:39:56.006Z,92.40
2019-02-26T16:42:26.327Z,92.50
2019-02-26T16:44:58.612Z,92.60
2019-02-26T16:47:27.374Z,93.10
2019-02-26T16:49:58.636Z,93.10
2019-02-26T16:52:28.453Z,93.10
2019-02-26T16:54:58.106Z,93.30
2019-02-26T16:57:28.162Z,93.40
2019-02-26T16:59:58.581Z,93.60
2019-02-26T17:02:28.296Z,93.80
2019-02-26T17:04:58.032Z,93.60
2019-02-26T17:07:27.710Z,94.00
2019-02-26T17:09:57.394Z,94.10
2019-02-26T17:12:29.161Z,94.10
2019-02-26T17:14:58.801Z,94.30
2019-02-26T17:17:28.554Z,94.70
2019-02-26T17:19:58.241Z,94.90
2019-02-26T17:22:28.548Z,94.80
2019-02-26T17:24:58.672Z,94.60
2019-02-26T17:27:28.435Z,94.90
2019-02-26T17:29:58.083Z,95.10
2019-02-26T17:32:27.734Z,95.20
2019-02-26T17:34:57.367Z,95.10
2019-02-26T17:37:27.017Z,95.10
2019-02-26T17:39:56.672Z,94.30
2019-02-26T17:42:26.395Z,93.90
2019-02-26T17:44:56.061Z,94.10
2019-02-26T17:47:25.735Z,95.00
2019-02-26T17:49:55.413Z,95.20
2019-02-26T17:52:25.057Z,95.60
2019-02-26T17:54:54.702Z,95.90
2019-02-26T17:57:24.297Z,96.00
2019-02-26T17:59:53.975Z,95.40
2019-02-26T18:02:27.335Z,94.80
2019-02-26T18:04:54.939Z,94.50
2019-02-26T18:07:24.557Z,94.90
2019-02-26T18:09:54.250Z,96.00
2019-02-26T18:12:23.866Z,96.40
2019-02-26T18:14:53.495Z,96.30
2019-02-26T18:17:23.125Z,95.80
2019-02-26T18:19:52.732Z,95.30
2019-02-26T18:22:22.397Z,95.40
2019-02-26T18:24:52.087Z,95.50
2019-02-26T18:27:21.729Z,96.20
2019-02-26T18:29:51.369Z,96.60
2019-02-26T18:32:21.003Z,97.20
2019-02-26T18:34:51.702Z,97.60
2019-02-26T18:37:21.423Z,97.50
2019-02-26T18:39:54.564Z,96.70
2019-02-26T18:42:22.486Z,96.10
2019-02-26T18:44:54.156Z,95.80
2019-02-26T18:47:23.479Z,95.50
2019-02-26T18:49:55.550Z,96.90
2019-02-26T18:52:24.430Z,97.30
2019-02-26T18:54:54.243Z,97.00
2019-02-26T18:57:25.840Z,97.10
2019-02-26T18:59:55.519Z,97.60
2019-02-26T19:02:25.163Z,98.10
2019-02-26T19:04:54.851Z,98.20
2019-02-26T19:07:24.648Z,98.20
2019-02-26T19:09:56.563Z,98.10
2019-02-26T19:12:30.236Z,96.10
2019-02-26T19:14:58.583Z,95.00
2019-02-26T19:17:28.256Z,95.10
2019-02-26T19:19:57.834Z,96.60
2019-02-26T19:22:27.530Z,97.20
2019-02-26T19:24:57.204Z,97.20
2019-02-26T19:27:26.795Z,96.70
2019-02-26T19:29:56.439Z,95.90
2019-02-26T19:32:26.056Z,95.80
2019-02-26T19:34:55.702Z,96.20
2019-02-26T19:37:25.318Z,97.60
2019-02-26T19:39:56.045Z,98.70
2019-02-26T19:42:26.648Z,99.40
2019-02-26T19:44:56.265Z,99.60
2019-02-26T19:47:25.909Z,99.20
2019-02-26T19:49:55.553Z,99.40
2019-02-26T19:52:25.437Z,99.50
2019-02-26T19:54:55.247Z,99.80
2019-02-26T19:57:24.906Z,99.90
2019-02-26T19:59:54.648Z,99.90
2019-02-26T20:02:24.254Z,99.60
2019-02-26T20:04:53.886Z,99.80
2019-02-26T20:07:25.203Z,99.00
2019-02-26T20:09:54.908Z,98.80
2019-02-26T20:12:28.613Z,99.10
2019-02-26T20:14:58.900Z,99.70
2019-02-26T20:17:28.518Z,99.70
2019-02-26T20:19:58.195Z,99.50
2019-02-26T20:22:30.127Z,99.60
2019-02-26T20:24:59.164Z,97.50
2019-02-26T20:27:28.754Z,97.40
2019-02-26T20:29:58.792Z,98.00
2019-02-26T20:32:30.869Z,98.30
2019-02-26T20:34:59.775Z,97.70
2019-02-26T20:37:29.353Z,96.00
2019-02-26T20:39:59.183Z,95.50
2019-02-26T20:42:28.937Z,96.20
2019-02-26T20:45:00.249Z,97.30
2019-02-26T20:47:31.537Z,97.70
2019-02-26T20:50:02.247Z,98.10
2019-02-26T20:52:32.883Z,99.60
2019-02-26T20:55:03.275Z,99.20
2019-02-26T20:57:34.907Z,98.70
2019-02-26T21:00:04.921Z,98.80
2019-02-26T21:02:58.598Z,99.90
2019-02-26T21:05:28.446Z,99.90
2019-02-26T21:07:58.889Z,99.90
2019-02-26T21:10:28.810Z,99.90
2019-02-26T21:13:01.624Z,99.50
2019-02-26T21:15:29.909Z,98.80
2019-02-26T21:17:59.615Z,98.90
2019-02-26T21:20:29.233Z,99.40
2019-02-26T21:22:58.943Z,99.90
2019-02-26T21:25:28.608Z,99.90
2019-02-26T21:28:00.770Z,99.90
2019-02-26T21:30:29.659Z,99.90
2019-02-26T21:32:59.375Z,99.90
2019-02-26T21:35:29.096Z,99.90
2019-02-26T21:37:58.822Z,99.90
2019-02-26T21:40:28.477Z,99.90
2019-02-26T21:43:01.590Z,99.90
2019-02-26T21:45:29.550Z,99.90
2019-02-26T21:48:02.253Z,99.90
2019-02-26T21:50:30.683Z,99.90
2019-02-26T21:53:00.395Z,99.90
2019-02-26T21:55:33.744Z,99.00
2019-02-26T21:58:01.434Z,99.90
2019-02-26T22:00:31.043Z,99.90
2019-02-26T22:03:00.807Z,98.30
2019-02-26T22:05:30.447Z,97.10
2019-02-26T22:08:00.084Z,96.90
2019-02-26T22:10:29.686Z,97.50
2019-02-26T22:12:59.358Z,97.60
2019-02-26T22:15:29.046Z,98.00
2019-02-26T22:17:58.996Z,98.90
2019-02-26T22:20:36.297Z,99.10
2019-02-26T22:23:02.983Z,99.40
2019-02-26T22:25:32.596Z,99.60
2019-02-26T22:28:02.224Z,99.90
2019-02-26T22:30:31.905Z,99.90
2019-02-26T22:33:01.595Z,99.90
2019-02-26T22:35:31.230Z,99.90
2019-02-26T22:38:00.907Z,98.70
2019-02-26T22:40:30.599Z,98.20
2019-02-26T22:43:00.255Z,99.00
2019-02-26T22:45:29.939Z,99.40
2019-02-26T22:47:59.537Z,99.60
2019-02-26T22:50:29.219Z,99.30
2019-02-26T22:52:58.849Z,98.40
2019-02-26T22:55:28.532Z,97.90
2019-02-26T22:58:02.510Z,98.00
2019-02-26T23:01:01.132Z,98.20
2019-02-26T23:03:32.488Z,98.20
2019-02-26T23:06:02.100Z,98.30
2019-02-26T23:08:32.422Z,98.80
2019-02-26T23:11:02.322Z,99.70
2019-02-26T23:13:33.204Z,99.90
2019-02-26T23:16:03.337Z,99.90
2019-02-26T23:18:33.240Z,99.90
2019-02-26T23:21:04.248Z,99.90
2019-02-26T23:23:34.256Z,99.90
2019-02-26T23:26:08.642Z,99.90
2019-02-26T23:28:36.124Z,99.90
2019-02-26T23:31:07.430Z,99.90
2019-02-26T23:33:37.241Z,99.90
2019-02-26T23:36:08.596Z,99.90
2019-02-26T23:38:38.319Z,99.90
2019-02-26T23:41:08.113Z,99.90
2019-02-26T23:43:37.929Z,98.60
2019-02-26T23:46:07.836Z,98.60
2019-02-26T23:48:40.754Z,98.50
2019-02-26T23:51:09.026Z,97.70
2019-02-26T23:53:38.747Z,98.30
2019-02-26T23:56:08.491Z,99.20
2019-02-26T23:58:38.118Z,99.60
